createdAt,value
2017-09-03T00:00:51.064Z,11.20
2017-09-03T00:03:17.233Z,11.20
2017-09-03T00:05:43.347Z,11.10
2017-09-03T00:08:09.467Z,11.10
2017-09-03T00:10:35.604Z,11.00
2017-09-03T00:13:01.730Z,11.00
2017-09-03T00:15:27.864Z,10.90
2017-09-03T00:17:53.974Z,11.00
2017-09-03T00:20:20.131Z,10.90
2017-09-03T00:22:46.273Z,11.00
2017-09-03T00:25:12.422Z,10.90
2017-09-03T00:27:38.534Z,10.80
2017-09-03T00:30:04.675Z,10.70
2017-09-03T00:32:30.871Z,10.70
2017-09-03T00:34:56.994Z,10.70
2017-09-03T00:37:23.143Z,10.70
2017-09-03T00:39:49.293Z,10.80
2017-09-03T00:42:15.448Z,10.70
2017-09-03T00:44:41.585Z,10.80
2017-09-03T00:47:07.711Z,10.80
2017-09-03T00:49:33.851Z,10.80
2017-09-03T00:52:01.083Z,10.80
2017-09-03T00:54:27.215Z,10.80
2017-09-03T00:56:53.414Z,10.80
2017-09-03T00:59:19.535Z,10.90
2017-09-03T01:01:45.699Z,10.80
2017-09-03T01:04:11.915Z,10.80
2017-09-03T01:06:38.100Z,10.70
2017-09-03T01:09:04.267Z,10.70
2017-09-03T01:11:30.434Z,10.80
2017-09-03T01:13:56.582Z,10.80
2017-09-03T01:16:22.778Z,10.80
2017-09-03T01:18:48.915Z,10.80
2017-09-03T01:21:15.087Z,10.50
2017-09-03T01:23:41.207Z,10.50
2017-09-03T01:26:07.370Z,10.60
2017-09-03T01:28:33.502Z,10.70
2017-09-03T01:30:59.642Z,10.60
2017-09-03T01:33:25.771Z,10.60
2017-09-03T01:35:51.904Z,10.60
2017-09-03T01:38:18.040Z,10.70
2017-09-03T01:40:44.226Z,10.70
2017-09-03T01:43:10.407Z,10.60
2017-09-03T01:45:36.556Z,10.60
2017-09-03T01:48:02.743Z,10.60
2017-09-03T01:50:28.893Z,10.60
2017-09-03T01:52:55.039Z,10.60
2017-09-03T01:55:21.162Z,10.70
2017-09-03T01:57:47.314Z,10.70
2017-09-03T02:00:13.487Z,10.40
2017-09-03T02:02:39.646Z,10.50
2017-09-03T02:05:05.793Z,10.60
2017-09-03T02:07:31.946Z,10.60
2017-09-03T02:09:58.083Z,10.70
2017-09-03T02:12:24.235Z,10.60
2017-09-03T02:14:51.106Z,10.40
2017-09-03T02:17:17.246Z,10.50
2017-09-03T02:19:43.438Z,10.50
2017-09-03T02:22:09.634Z,10.60
2017-09-03T02:24:35.788Z,10.60
2017-09-03T02:27:01.934Z,10.70
2017-09-03T02:29:28.071Z,10.70
2017-09-03T02:31:54.211Z,10.70
2017-09-03T02:34:20.370Z,10.60
2017-09-03T02:36:46.552Z,10.60
2017-09-03T02:39:12.742Z,10.60
2017-09-03T02:41:38.900Z,10.70
2017-09-03T02:44:05.071Z,10.60
2017-09-03T02:46:31.215Z,10.60
2017-09-03T02:48:57.363Z,10.60
2017-09-03T02:51:23.495Z,10.50
2017-09-03T02:53:49.694Z,10.50
2017-09-03T02:56:15.879Z,10.50
2017-09-03T02:58:42.035Z,10.60
2017-09-03T03:01:08.223Z,10.60
2017-09-03T03:03:35.461Z,10.60
2017-09-03T03:06:01.591Z,10.70
2017-09-03T03:08:27.752Z,10.70
2017-09-03T03:10:53.896Z,10.60
2017-09-03T03:13:20.051Z,10.60
2017-09-03T03:15:46.202Z,10.60
2017-09-03T03:18:12.372Z,10.60
2017-09-03T03:20:38.525Z,10.60
2017-09-03T03:23:04.674Z,10.60
2017-09-03T03:25:30.822Z,10.60
2017-09-03T03:27:56.983Z,10.60
2017-09-03T03:30:23.127Z,10.40
2017-09-03T03:32:49.274Z,10.30
2017-09-03T03:35:15.414Z,10.30
2017-09-03T03:37:41.565Z,10.40
2017-09-03T03:40:07.695Z,10.40
2017-09-03T03:42:33.857Z,10.50
2017-09-03T03:44:59.995Z,10.50
2017-09-03T03:47:26.155Z,10.40
2017-09-03T03:49:52.287Z,10.40
2017-09-03T03:52:18.438Z,10.20
2017-09-03T03:54:44.646Z,10.30
2017-09-03T03:57:10.782Z,10.30
2017-09-03T03:59:36.931Z,10.30
2017-09-03T04:02:03.082Z,10.30
2017-09-03T04:04:29.257Z,10.30
2017-09-03T04:06:55.438Z,10.10
2017-09-03T04:09:21.599Z,10.00
2017-09-03T04:11:47.775Z,9.70
2017-09-03T04:14:13.967Z,9.60
2017-09-03T04:16:40.095Z,9.80
2017-09-03T04:19:06.252Z,9.90
2017-09-03T04:21:32.383Z,9.90
2017-09-03T04:23:58.534Z,10.00
2017-09-03T04:26:24.657Z,10.00
2017-09-03T04:28:50.806Z,10.00
2017-09-03T04:31:16.949Z,10.00
2017-09-03T04:33:43.138Z,10.00
2017-09-03T04:36:09.320Z,10.00
2017-09-03T04:38:35.492Z,10.00
2017-09-03T04:41:01.655Z,9.90
2017-09-03T04:43:27.794Z,9.90
2017-09-03T04:45:53.942Z,9.90
2017-09-03T04:48:20.125Z,9.90
2017-09-03T04:50:46.302Z,9.90
2017-09-03T04:53:12.448Z,9.90
2017-09-03T04:55:38.606Z,9.80
2017-09-03T04:58:04.745Z,9.80
2017-09-03T05:00:30.913Z,9.80
2017-09-03T05:02:57.077Z,9.80
2017-09-03T05:05:23.247Z,9.70
2017-09-03T05:07:49.387Z,9.80
2017-09-03T05:10:15.544Z,9.80
2017-09-03T05:12:41.704Z,9.80
2017-09-03T05:15:07.879Z,9.80
2017-09-03T05:17:34.011Z,9.90
2017-09-03T05:20:00.180Z,9.90
2017-09-03T05:22:26.316Z,9.90
2017-09-03T05:24:52.464Z,9.90
2017-09-03T05:27:18.630Z,9.90
2017-09-03T05:29:44.784Z,9.90
2017-09-03T05:32:10.923Z,9.90
2017-09-03T05:34:37.095Z,9.80
2017-09-03T05:37:03.392Z,9.80
2017-09-03T05:39:29.578Z,9.80
2017-09-03T05:41:55.723Z,9.80
2017-09-03T05:44:21.862Z,9.80
2017-09-03T05:46:48.034Z,9.70
2017-09-03T05:49:14.204Z,9.80
2017-09-03T05:51:40.370Z,9.80
2017-09-03T05:54:06.514Z,9.80
2017-09-03T05:56:32.690Z,9.80
2017-09-03T05:58:58.845Z,9.80
2017-09-03T06:01:25.052Z,9.90
2017-09-03T06:03:51.299Z,10.00
2017-09-03T06:06:17.462Z,10.20
2017-09-03T06:08:43.622Z,10.30
2017-09-03T06:11:09.827Z,10.40
2017-09-03T06:13:35.950Z,10.50
2017-09-03T06:16:02.165Z,10.60
2017-09-03T06:18:28.325Z,10.50
2017-09-03T06:20:54.486Z,10.80
2017-09-03T06:23:20.651Z,10.80
2017-09-03T06:25:46.821Z,10.70
2017-09-03T06:28:12.989Z,10.90
2017-09-03T06:30:39.187Z,10.80
2017-09-03T06:33:05.336Z,10.70
2017-09-03T06:35:31.476Z,10.60
2017-09-03T06:37:57.640Z,10.60
2017-09-03T06:40:23.774Z,10.60
2017-09-03T06:42:49.996Z,10.70
2017-09-03T06:45:16.163Z,10.70
2017-09-03T06:47:42.363Z,10.70
2017-09-03T06:50:09.179Z,10.70
2017-09-03T06:52:35.334Z,10.70
2017-09-03T06:55:01.495Z,10.70
2017-09-03T06:57:27.660Z,10.80
2017-09-03T06:59:53.817Z,10.90
2017-09-03T07:02:20.017Z,10.90
2017-09-03T07:04:46.160Z,11.00
2017-09-03T07:07:12.451Z,11.00
2017-09-03T07:09:38.651Z,11.00
2017-09-03T07:12:04.855Z,11.10
2017-09-03T07:14:31.000Z,11.20
2017-09-03T07:16:57.360Z,11.10
2017-09-03T07:19:23.547Z,11.20
2017-09-03T07:21:49.743Z,11.30
2017-09-03T07:24:15.893Z,11.30
2017-09-03T07:26:42.043Z,11.40
2017-09-03T07:29:08.203Z,11.40
2017-09-03T07:31:34.402Z,11.50
2017-09-03T07:34:00.586Z,11.50
2017-09-03T07:36:26.787Z,11.50
2017-09-03T07:38:52.972Z,11.60
2017-09-03T07:41:19.148Z,11.60
2017-09-03T07:43:45.323Z,11.70
2017-09-03T07:46:11.462Z,11.70
2017-09-03T07:48:37.635Z,11.80
2017-09-03T07:51:03.819Z,11.90
2017-09-03T07:53:30.004Z,11.90
2017-09-03T07:55:56.155Z,11.90
2017-09-03T07:58:22.333Z,12.00
2017-09-03T08:00:48.519Z,12.00
2017-09-03T08:03:14.687Z,12.00
2017-09-03T08:05:40.815Z,11.90
2017-09-03T08:08:07.004Z,12.00
2017-09-03T08:10:33.144Z,12.10
2017-09-03T08:12:59.319Z,12.10
2017-09-03T08:15:25.474Z,12.10
2017-09-03T08:17:51.607Z,12.30
2017-09-03T08:20:17.751Z,12.40
2017-09-03T08:22:43.896Z,12.40
2017-09-03T08:25:10.018Z,12.50
2017-09-03T08:27:36.291Z,12.50
2017-09-03T08:30:02.496Z,12.60
2017-09-03T08:32:28.794Z,12.70
2017-09-03T08:34:54.951Z,12.80
2017-09-03T08:37:21.087Z,13.00
2017-09-03T08:39:47.246Z,13.10
2017-09-03T08:42:13.366Z,13.10
2017-09-03T08:44:39.523Z,13.10
2017-09-03T08:47:05.821Z,13.20
2017-09-03T08:49:31.962Z,13.20
2017-09-03T08:51:59.192Z,13.10
2017-09-03T08:54:25.346Z,13.20
2017-09-03T08:56:51.550Z,13.30
2017-09-03T08:59:17.700Z,13.30
2017-09-03T09:01:43.852Z,13.40
2017-09-03T09:04:10.036Z,13.60
2017-09-03T09:06:36.184Z,13.70
2017-09-03T09:09:02.408Z,13.80
2017-09-03T09:11:28.538Z,14.00
2017-09-03T09:13:54.756Z,14.00
2017-09-03T09:16:20.924Z,14.00
2017-09-03T09:18:47.082Z,13.90
2017-09-03T09:21:13.357Z,14.00
2017-09-03T09:23:39.614Z,14.00
2017-09-03T09:26:12.914Z,14.10
2017-09-03T09:28:39.100Z,14.30
2017-09-03T09:31:05.263Z,14.40
2017-09-03T09:33:31.443Z,14.40
2017-09-03T09:35:57.629Z,14.50
2017-09-03T09:38:23.811Z,14.60
2017-09-03T09:40:49.966Z,14.70
2017-09-03T09:43:17.111Z,14.70
2017-09-03T09:45:43.282Z,14.70
2017-09-03T09:48:09.539Z,14.80
2017-09-03T09:50:35.744Z,14.90
2017-09-03T09:53:01.919Z,15.00
2017-09-03T09:55:28.114Z,15.10
2017-09-03T09:57:54.269Z,15.20
2017-09-03T10:00:20.422Z,15.20
2017-09-03T10:02:46.579Z,15.30
2017-09-03T10:05:12.771Z,15.30
2017-09-03T10:07:38.903Z,15.40
2017-09-03T10:10:05.130Z,15.40
2017-09-03T10:12:31.376Z,15.50
2017-09-03T10:14:57.531Z,15.60
2017-09-03T10:17:23.697Z,15.70
2017-09-03T10:19:49.843Z,15.90
2017-09-03T10:22:16.032Z,16.10
2017-09-03T10:24:42.240Z,16.20
2017-09-03T10:27:08.406Z,16.40
2017-09-03T10:29:34.542Z,16.50
2017-09-03T10:32:00.695Z,16.50
2017-09-03T10:34:26.874Z,16.60
2017-09-03T10:36:53.095Z,16.70
2017-09-03T10:39:19.251Z,16.80
2017-09-03T10:41:45.388Z,17.00
2017-09-03T10:44:11.571Z,17.10
2017-09-03T10:46:37.712Z,17.20
2017-09-03T10:49:03.870Z,17.20
2017-09-03T10:51:30.034Z,17.30
2017-09-03T10:53:56.198Z,17.20
2017-09-03T10:56:23.154Z,17.40
2017-09-03T10:58:49.298Z,17.70
2017-09-03T11:01:15.419Z,17.70
2017-09-03T11:03:41.591Z,17.70
2017-09-03T11:06:07.750Z,17.50
2017-09-03T11:08:33.884Z,17.40
2017-09-03T11:11:00.077Z,17.60
2017-09-03T11:13:26.243Z,17.90
2017-09-03T11:15:52.400Z,18.20
2017-09-03T11:18:18.579Z,18.30
2017-09-03T11:20:44.751Z,18.50
2017-09-03T11:23:10.903Z,18.80
2017-09-03T11:25:37.130Z,19.00
2017-09-03T11:28:03.299Z,18.90
2017-09-03T11:30:29.535Z,18.90
2017-09-03T11:32:55.667Z,18.80
2017-09-03T11:35:21.818Z,18.80
2017-09-03T11:37:47.987Z,18.60
2017-09-03T11:40:14.167Z,18.80
2017-09-03T11:42:40.387Z,19.00
2017-09-03T11:45:06.551Z,19.00
2017-09-03T11:47:32.698Z,19.50
2017-09-03T11:49:58.843Z,19.70
2017-09-03T11:52:25.037Z,20.00
2017-09-03T11:54:51.174Z,20.20
2017-09-03T11:57:17.358Z,20.60
2017-09-03T11:59:44.665Z,20.70
2017-09-03T12:02:10.875Z,20.80
2017-09-03T12:04:37.137Z,20.80
2017-09-03T12:07:03.292Z,20.90
2017-09-03T12:09:29.419Z,21.30
2017-09-03T12:11:55.586Z,21.60
2017-09-03T12:14:21.723Z,21.70
2017-09-03T12:16:47.878Z,21.90
2017-09-03T12:19:14.038Z,22.10
2017-09-03T12:21:40.203Z,22.20
2017-09-03T12:24:06.349Z,22.50
2017-09-03T12:26:32.548Z,22.50
2017-09-03T12:28:59.366Z,22.70
2017-09-03T12:31:25.539Z,22.70
2017-09-03T12:33:51.671Z,22.90
2017-09-03T12:36:17.806Z,22.90
2017-09-03T12:38:43.947Z,23.00
2017-09-03T12:41:10.139Z,23.10
2017-09-03T12:43:36.316Z,23.30
2017-09-03T12:46:02.552Z,23.40
2017-09-03T12:48:28.780Z,23.60
2017-09-03T12:50:54.960Z,23.80
2017-09-03T12:53:21.122Z,23.80
2017-09-03T12:55:47.296Z,23.80
2017-09-03T12:58:13.449Z,23.80
2017-09-03T13:00:39.592Z,24.00
2017-09-03T13:03:05.890Z,23.60
2017-09-03T13:05:32.052Z,23.10
2017-09-03T13:07:58.247Z,23.00
2017-09-03T13:10:24.385Z,23.00
2017-09-03T13:12:50.550Z,22.70
2017-09-03T13:15:16.716Z,22.50
2017-09-03T13:17:43.091Z,22.30
2017-09-03T13:20:09.254Z,22.20
2017-09-03T13:22:35.474Z,22.00
2017-09-03T13:25:01.688Z,21.80
2017-09-03T13:27:27.898Z,21.70
2017-09-03T13:29:54.108Z,21.50
2017-09-03T13:32:20.266Z,21.30
2017-09-03T13:34:46.454Z,20.80
2017-09-03T13:37:12.640Z,20.80
2017-09-03T13:39:38.778Z,20.50
2017-09-03T13:42:04.950Z,20.50
2017-09-03T13:44:31.139Z,20.50
2017-09-03T13:46:57.288Z,20.60
2017-09-03T13:49:23.471Z,20.40
2017-09-03T13:51:49.614Z,20.50
2017-09-03T13:54:15.843Z,20.50
2017-09-03T13:56:42.007Z,20.60
2017-09-03T13:59:08.150Z,20.80
2017-09-03T14:01:34.799Z,20.80
2017-09-03T14:04:00.963Z,20.60
2017-09-03T14:06:27.090Z,20.50
2017-09-03T14:11:24.091Z,20.30
2017-09-03T14:13:52.784Z,20.20
2017-09-03T14:16:19.045Z,20.10
2017-09-03T14:18:45.254Z,20.10
2017-09-03T14:21:11.419Z,20.20
2017-09-03T14:23:37.558Z,20.00
2017-09-03T14:26:03.686Z,19.60
2017-09-03T14:28:29.859Z,19.70
2017-09-03T14:30:55.983Z,19.60
2017-09-03T14:33:22.110Z,19.70
2017-09-03T14:35:48.307Z,19.80
2017-09-03T14:38:14.448Z,19.80
2017-09-03T14:40:40.583Z,19.80
2017-09-03T14:43:06.707Z,19.80
2017-09-03T14:45:32.862Z,19.80
2017-09-03T14:47:59.010Z,19.80
2017-09-03T14:50:25.175Z,19.70
2017-09-03T14:53:18.154Z,19.80
2017-09-03T14:55:44.376Z,19.70
2017-09-03T14:58:10.851Z,19.60
2017-09-03T15:00:39.712Z,19.60
2017-09-03T15:03:05.946Z,19.60
2017-09-03T15:05:32.103Z,19.60
2017-09-03T15:07:58.303Z,19.60
2017-09-03T15:10:24.532Z,19.60
2017-09-03T15:12:50.739Z,19.60
2017-09-03T15:15:16.948Z,19.50
2017-09-03T15:17:43.131Z,19.50
2017-09-03T15:20:09.284Z,19.50
2017-09-03T15:22:35.427Z,19.50
2017-09-03T15:25:01.587Z,19.50
2017-09-03T15:27:27.744Z,19.50
2017-09-03T15:29:53.932Z,19.50
2017-09-03T15:32:20.062Z,19.60
2017-09-03T15:34:46.278Z,19.50
2017-09-03T15:37:12.455Z,19.40
2017-09-03T15:39:38.614Z,19.40
2017-09-03T15:42:04.766Z,19.40
2017-09-03T15:44:30.999Z,19.30
2017-09-03T15:46:57.155Z,19.30
2017-09-03T15:49:23.316Z,19.40
2017-09-03T15:51:49.450Z,19.40
2017-09-03T15:54:15.657Z,19.40
2017-09-03T15:56:41.852Z,19.40
2017-09-03T15:59:08.005Z,19.40
2017-09-03T16:01:34.181Z,19.40
2017-09-03T16:04:00.336Z,19.40
2017-09-03T16:06:26.491Z,19.30
2017-09-03T16:08:52.655Z,19.40
2017-09-03T16:11:18.798Z,19.30
2017-09-03T16:13:44.942Z,19.30
2017-09-03T16:16:11.186Z,19.30
2017-09-03T16:18:37.330Z,19.30
2017-09-03T16:21:03.490Z,19.30
2017-09-03T16:23:29.646Z,19.20
2017-09-03T16:25:55.799Z,19.20
2017-09-03T16:28:21.935Z,19.20
2017-09-03T16:30:48.106Z,19.20
2017-09-03T16:33:14.239Z,19.20
2017-09-03T16:35:40.422Z,19.10
2017-09-03T16:38:06.634Z,19.10
2017-09-03T16:40:32.880Z,19.10
2017-09-03T16:42:59.032Z,19.10
2017-09-03T16:45:25.190Z,19.10
2017-09-03T16:47:51.358Z,19.00
2017-09-03T16:50:17.553Z,19.00
2017-09-03T16:52:43.722Z,19.00
2017-09-03T16:55:09.927Z,19.00
2017-09-03T16:57:36.108Z,19.00
2017-09-03T17:00:02.367Z,19.00
2017-09-03T17:02:28.594Z,18.90
2017-09-03T17:04:54.756Z,18.80
2017-09-03T17:07:20.982Z,18.70
2017-09-03T17:09:47.156Z,18.70
2017-09-03T17:12:13.334Z,18.60
2017-09-03T17:14:39.486Z,18.40
2017-09-03T17:17:05.666Z,18.50
2017-09-03T17:19:31.843Z,18.40
2017-09-03T17:21:58.994Z,18.30
2017-09-03T17:24:25.188Z,18.00
2017-09-03T17:26:51.378Z,17.80
2017-09-03T17:29:17.635Z,17.70
2017-09-03T17:31:43.792Z,17.60
2017-09-03T17:34:10.005Z,17.70
2017-09-03T17:36:37.158Z,17.60
2017-09-03T17:39:03.376Z,17.50
2017-09-03T17:41:29.727Z,17.50
2017-09-03T17:43:55.890Z,17.40
2017-09-03T17:46:22.083Z,17.40
2017-09-03T17:48:48.281Z,17.30
2017-09-03T17:51:14.443Z,17.30
2017-09-03T17:53:40.610Z,17.10
2017-09-03T17:56:06.790Z,16.90
2017-09-03T17:58:32.939Z,16.60
2017-09-03T18:00:59.140Z,16.60
2017-09-03T18:03:25.338Z,16.50
2017-09-03T18:05:51.531Z,16.20
2017-09-03T18:08:17.719Z,16.20
2017-09-03T18:10:43.883Z,16.10
2017-09-03T18:13:10.062Z,16.20
2017-09-03T18:15:36.233Z,16.30
2017-09-03T18:18:02.400Z,16.20
2017-09-03T18:20:28.563Z,16.10
2017-09-03T18:22:54.738Z,15.80
2017-09-03T18:25:20.890Z,15.90
2017-09-03T18:27:47.087Z,15.80
2017-09-03T18:30:13.247Z,15.60
2017-09-03T18:32:39.435Z,15.60
2017-09-03T18:35:05.582Z,15.40
2017-09-03T18:37:32.706Z,15.40
2017-09-03T18:40:05.002Z,15.20
2017-09-03T18:42:36.154Z,15.10
2017-09-03T18:45:02.343Z,15.10
2017-09-03T18:47:28.520Z,15.20
2017-09-03T18:50:04.615Z,15.30
2017-09-03T18:52:34.643Z,15.30
2017-09-03T18:55:00.814Z,15.10
2017-09-03T18:57:26.986Z,15.00
2017-09-03T18:59:53.157Z,14.90
2017-09-03T19:02:29.305Z,14.80
2017-09-03T19:04:58.361Z,14.60
2017-09-03T19:07:24.551Z,14.60
2017-09-03T19:09:50.707Z,14.60
2017-09-03T19:12:16.881Z,14.70
2017-09-03T19:14:43.055Z,14.70
2017-09-03T19:17:09.211Z,14.70
2017-09-03T19:19:35.399Z,14.70
2017-09-03T19:22:01.603Z,14.70
2017-09-03T19:24:27.891Z,14.60
2017-09-03T19:26:54.054Z,14.60
2017-09-03T19:29:20.239Z,14.50
2017-09-03T19:31:46.516Z,14.40
2017-09-03T19:34:12.706Z,14.10
2017-09-03T19:36:39.795Z,13.80
2017-09-03T19:39:05.995Z,13.90
2017-09-03T19:41:32.187Z,14.00
2017-09-03T19:43:58.355Z,14.10
2017-09-03T19:46:24.520Z,14.10
2017-09-03T19:48:50.676Z,14.20
2017-09-03T19:51:16.820Z,14.10
2017-09-03T19:53:42.998Z,14.10
2017-09-03T19:56:09.139Z,14.10
2017-09-03T19:58:35.367Z,13.80
2017-09-03T20:01:01.513Z,13.60
2017-09-03T20:03:27.702Z,13.70
2017-09-03T20:05:53.924Z,13.80
2017-09-03T20:08:23.880Z,13.80
2017-09-03T20:10:50.368Z,13.90
2017-09-03T20:13:18.682Z,13.90
2017-09-03T20:15:44.834Z,13.80
2017-09-03T20:18:10.982Z,13.80
2017-09-03T20:20:37.408Z,13.70
2017-09-03T20:23:11.395Z,13.70
2017-09-03T20:25:37.582Z,13.70
2017-09-03T20:28:03.720Z,13.60
2017-09-03T20:30:29.871Z,13.60
2017-09-03T20:32:57.688Z,13.50
2017-09-03T20:35:23.910Z,13.50
2017-09-03T20:37:50.159Z,13.50
2017-09-03T20:40:16.302Z,13.50
2017-09-03T20:42:42.450Z,13.40
2017-09-03T20:45:10.970Z,13.30
2017-09-03T20:47:37.622Z,13.30
2017-09-03T20:50:04.001Z,13.20
2017-09-03T20:52:30.368Z,13.10
2017-09-03T20:54:56.592Z,13.10
2017-09-03T20:57:22.990Z,13.10
2017-09-03T20:59:49.318Z,13.10
2017-09-03T21:02:16.302Z,13.10
2017-09-03T21:04:43.125Z,13.10
2017-09-03T21:07:09.314Z,13.00
2017-09-03T21:09:35.488Z,13.00
2017-09-03T21:12:01.848Z,13.00
2017-09-03T21:14:28.270Z,13.00
2017-09-03T21:16:54.451Z,12.90
2017-09-03T21:19:20.651Z,12.90
2017-09-03T21:21:46.810Z,12.90
2017-09-03T21:24:13.239Z,12.90
2017-09-03T21:26:39.579Z,12.80
2017-09-03T21:29:05.751Z,12.80
2017-09-03T21:31:31.992Z,12.80
2017-09-03T21:33:58.261Z,12.80
2017-09-03T21:36:24.529Z,12.70
2017-09-03T21:38:50.715Z,12.70
2017-09-03T21:41:16.891Z,12.70
2017-09-03T21:43:43.030Z,12.60
2017-09-03T21:46:09.216Z,12.50
2017-09-03T21:48:35.379Z,12.50
2017-09-03T21:51:01.651Z,12.50
2017-09-03T21:53:27.823Z,12.50
2017-09-03T21:55:54.003Z,12.50
2017-09-03T21:58:20.140Z,12.40
2017-09-03T22:00:46.375Z,12.40
2017-09-03T22:03:12.539Z,12.40
2017-09-03T22:05:39.271Z,12.40
2017-09-03T22:08:05.450Z,12.30
2017-09-03T22:10:31.642Z,12.40
2017-09-03T22:12:57.786Z,12.30
2017-09-03T22:15:23.926Z,12.40
2017-09-03T22:17:50.046Z,12.40
2017-09-03T22:20:16.198Z,12.30
2017-09-03T22:22:42.359Z,12.40
2017-09-03T22:25:08.540Z,12.30
2017-09-03T22:27:34.703Z,12.30
2017-09-03T22:30:00.903Z,12.30
2017-09-03T22:32:27.043Z,12.20
2017-09-03T22:34:53.206Z,12.20
2017-09-03T22:37:19.779Z,12.20
2017-09-03T22:39:45.960Z,12.10
2017-09-03T22:42:12.257Z,12.10
2017-09-03T22:44:38.644Z,12.10
2017-09-03T22:47:04.867Z,12.10
2017-09-03T22:49:31.058Z,12.00
2017-09-03T22:51:57.234Z,11.90
2017-09-03T22:54:23.583Z,11.90
2017-09-03T22:56:49.807Z,11.90
2017-09-03T22:59:15.979Z,11.80
2017-09-03T23:01:42.164Z,11.80
2017-09-03T23:04:08.311Z,11.80
2017-09-03T23:06:34.496Z,11.80
2017-09-03T23:09:00.633Z,11.80
2017-09-03T23:11:26.776Z,11.70
2017-09-03T23:13:52.914Z,11.50
2017-09-03T23:16:19.099Z,11.40
2017-09-03T23:18:45.218Z,11.40
2017-09-03T23:21:11.382Z,11.50
2017-09-03T23:23:38.507Z,11.40
2017-09-03T23:26:04.691Z,11.30
2017-09-03T23:28:32.961Z,11.10
2017-09-03T23:31:00.527Z,10.90
2017-09-03T23:33:27.552Z,11.00
2017-09-03T23:35:53.981Z,11.10
2017-09-03T23:38:20.163Z,11.10
2017-09-03T23:40:47.269Z,11.10
2017-09-03T23:43:13.463Z,11.10
2017-09-03T23:45:39.647Z,11.10
2017-09-03T23:48:05.790Z,10.80
2017-09-03T23:50:37.907Z,10.90
2017-09-03T23:53:04.104Z,10.90
2017-09-03T23:55:30.251Z,10.90
2017-09-03T23:57:56.425Z,10.90
